sensor_id;sensor_type;location;lat;lon;timestamp;temperature;humidity
27633;DHT22;15046;50.930;13.334;2024-03-23T00:56:05;9.80;92.80
27633;DHT22;15046;50.930;13.334;2024-03-23T00:58:33;9.80;92.80
27633;DHT22;15046;50.930;13.334;2024-03-23T01:00:58;9.80;92.90
27633;DHT22;15046;50.930;13.334;2024-03-23T01:03:24;9.70;93.00
27633;DHT22;15046;50.930;13.334;2024-03-23T01:05:50;9.60;93.00
27633;DHT22;15046;50.930;13.334;2024-03-23T01:08:15;9.50;93.10
27633;DHT22;15046;50.930;13.334;2024-03-23T01:10:41;9.40;93.20
27633;DHT22;15046;50.930;13.334;2024-03-23T01:13:07;9.30;93.30
27633;DHT22;15046;50.930;13.334;2024-03-23T01:15:33;9.20;93.50
27633;DHT22;15046;50.930;13.334;2024-03-23T01:18:01;9.20;93.60
27633;DHT22;15046;50.930;13.334;2024-03-23T01:20:27;9.10;93.70
27633;DHT22;15046;50.930;13.334;2024-03-23T01:22:54;9.10;93.80
27633;DHT22;15046;50.930;13.334;2024-03-23T01:25:19;9.10;93.90
27633;DHT22;15046;50.930;13.334;2024-03-23T01:27:45;9.00;94.00
27633;DHT22;15046;50.930;13.334;2024-03-23T01:30:11;9.00;94.10
27633;DHT22;15046;50.930;13.334;2024-03-23T01:32:39;9.00;94.10
27633;DHT22;15046;50.930;13.334;2024-03-23T01:35:05;9.00;94.20
27633;DHT22;15046;50.930;13.334;2024-03-23T01:37:30;9.00;94.30
27633;DHT22;15046;50.930;13.334;2024-03-23T01:39:56;9.00;94.30
27633;DHT22;15046;50.930;13.334;2024-03-23T01:42:22;9.10;94.40
27633;DHT22;15046;50.930;13.334;2024-03-23T01:44:47;9.10;94.40
27633;DHT22;15046;50.930;13.334;2024-03-23T01:47:13;9.10;94.40
27633;DHT22;15046;50.930;13.334;2024-03-23T01:49:39;9.10;94.40
27633;DHT22;15046;50.930;13.334;2024-03-23T01:52:05;9.20;94.50
27633;DHT22;15046;50.930;13.334;2024-03-23T01:54:30;9.10;94.50
27633;DHT22;15046;50.930;13.334;2024-03-23T01:56:56;9.10;94.50
27633;DHT22;15046;50.930;13.334;2024-03-23T01:59:22;9.10;94.60
27633;DHT22;15046;50.930;13.334;2024-03-23T02:01:48;9.00;94.60
27633;DHT22;15046;50.930;13.334;2024-03-23T02:04:14;8.90;94.70
27633;DHT22;15046;50.930;13.334;2024-03-23T02:06:40;8.90;95.00
27633;DHT22;15046;50.930;13.334;2024-03-23T02:09:05;8.90;95.30
27633;DHT22;15046;50.930;13.334;2024-03-23T02:11:31;8.90;95.50
27633;DHT22;15046;50.930;13.334;2024-03-23T02:13:57;9.00;95.80
27633;DHT22;15046;50.930;13.334;2024-03-23T02:16:23;9.00;96.10
27633;DHT22;15046;50.930;13.334;2024-03-23T02:18:49;9.00;96.50
27633;DHT22;15046;50.930;13.334;2024-03-23T02:21:15;9.10;97.00
27633;DHT22;15046;50.930;13.334;2024-03-23T02:23:41;9.20;97.80
27633;DHT22;15046;50.930;13.334;2024-03-23T02:26:07;9.20;98.70
27633;DHT22;15046;50.930;13.334;2024-03-23T02:28:32;9.30;99.90
27633;DHT22;15046;50.930;13.334;2024-03-23T02:30:58;9.30;99.90
27633;DHT22;15046;50.930;13.334;2024-03-23T02:33:25;9.40;99.90
27633;DHT22;15046;50.930;13.334;2024-03-23T02:35:56;9.40;99.90
27633;DHT22;15046;50.930;13.334;2024-03-23T02:38:22;9.50;99.90
27633;DHT22;15046;50.930;13.334;2024-03-23T02:40:48;9.50;99.90
27633;DHT22;15046;50.930;13.334;2024-03-23T02:43:14;9.50;99.90
27633;DHT22;15046;50.930;13.334;2024-03-23T02:45:40;9.60;99.90
27633;DHT22;15046;50.930;13.334;2024-03-23T02:48:05;9.60;99.90
27633;DHT22;15046;50.930;13.334;2024-03-23T02:50:31;9.60;99.90
27633;DHT22;15046;50.930;13.334;2024-03-23T02:52:57;9.60;99.90
27633;DHT22;15046;50.930;13.334;2024-03-23T02:55:23;9.60;99.90
27633;DHT22;15046;50.930;13.334;2024-03-23T02:57:48;9.60;99.90
27633;DHT22;15046;50.930;13.334;2024-03-23T03:00:14;9.50;99.90
27633;DHT22;15046;50.930;13.334;2024-03-23T03:02:40;9.60;99.90
27633;DHT22;15046;50.930;13.334;2024-03-23T03:05:06;9.60;99.90
27633;DHT22;15046;50.930;13.334;2024-03-23T03:07:32;9.60;99.90
27633;DHT22;15046;50.930;13.334;2024-03-23T03:09:58;9.60;99.90
27633;DHT22;15046;50.930;13.334;2024-03-23T03:12:23;9.60;99.90
27633;DHT22;15046;50.930;13.334;2024-03-23T03:14:49;9.60;99.90
27633;DHT22;15046;50.930;13.334;2024-03-23T03:17:15;9.60;99.90
27633;DHT22;15046;50.930;13.334;2024-03-23T03:19:40;9.60;99.90
27633;DHT22;15046;50.930;13.334;2024-03-23T03:22:06;9.60;99.90
27633;DHT22;15046;50.930;13.334;2024-03-23T03:24:32;9.60;99.90
27633;DHT22;15046;50.930;13.334;2024-03-23T03:26:58;9.60;99.90
27633;DHT22;15046;50.930;13.334;2024-03-23T03:29:24;9.60;99.90
27633;DHT22;15046;50.930;13.334;2024-03-23T03:31:50;9.60;99.90
27633;DHT22;15046;50.930;13.334;2024-03-23T03:34:16;9.50;99.90
27633;DHT22;15046;50.930;13.334;2024-03-23T03:36:41;9.50;99.90
27633;DHT22;15046;50.930;13.334;2024-03-23T03:39:07;9.50;99.90
27633;DHT22;15046;50.930;13.334;2024-03-23T03:41:33;9.60;99.90
27633;DHT22;15046;50.930;13.334;2024-03-23T03:43:58;9.50;99.90
27633;DHT22;15046;50.930;13.334;2024-03-23T03:46:30;9.50;99.90
27633;DHT22;15046;50.930;13.334;2024-03-23T03:48:56;9.40;99.90
27633;DHT22;15046;50.930;13.334;2024-03-23T03:51:22;9.40;99.90
27633;DHT22;15046;50.930;13.334;2024-03-23T03:53:47;9.40;99.90
27633;DHT22;15046;50.930;13.334;2024-03-23T03:56:13;9.40;99.90
27633;DHT22;15046;50.930;13.334;2024-03-23T03:58:39;9.40;99.90
27633;DHT22;15046;50.930;13.334;2024-03-23T04:01:05;9.40;99.90
27633;DHT22;15046;50.930;13.334;2024-03-23T04:03:31;9.30;99.90
27633;DHT22;15046;50.930;13.334;2024-03-23T04:05:57;9.30;99.90
27633;DHT22;15046;50.930;13.334;2024-03-23T04:08:23;9.30;99.90
27633;DHT22;15046;50.930;13.334;2024-03-23T04:10:49;9.20;99.90
27633;DHT22;15046;50.930;13.334;2024-03-23T04:13:15;9.20;99.90
27633;DHT22;15046;50.930;13.334;2024-03-23T04:15:41;9.20;99.90
27633;DHT22;15046;50.930;13.334;2024-03-23T04:18:06;9.20;99.90
27633;DHT22;15046;50.930;13.334;2024-03-23T04:20:32;9.20;99.90
27633;DHT22;15046;50.930;13.334;2024-03-23T04:23:01;9.10;99.90
27633;DHT22;15046;50.930;13.334;2024-03-23T04:25:27;9.10;99.90
27633;DHT22;15046;50.930;13.334;2024-03-23T04:27:52;9.10;99.90
27633;DHT22;15046;50.930;13.334;2024-03-23T04:30:18;9.00;99.90
27633;DHT22;15046;50.930;13.334;2024-03-23T04:32:44;9.00;99.90
27633;DHT22;15046;50.930;13.334;2024-03-23T04:35:10;9.00;99.90
27633;DHT22;15046;50.930;13.334;2024-03-23T04:37:37;8.90;99.90
27633;DHT22;15046;50.930;13.334;2024-03-23T04:40:04;9.00;99.90
27633;DHT22;15046;50.930;13.334;2024-03-23T04:42:30;9.00;99.90
27633;DHT22;15046;50.930;13.334;2024-03-23T04:44:56;8.90;99.90
27633;DHT22;15046;50.930;13.334;2024-03-23T04:47:22;8.90;99.90
27633;DHT22;15046;50.930;13.334;2024-03-23T04:49:48;8.80;99.90
27633;DHT22;15046;50.930;13.334;2024-03-23T04:52:14;8.80;99.90
27633;DHT22;15046;50.930;13.334;2024-03-23T04:54:40;8.70;99.90
27633;DHT22;15046;50.930;13.334;2024-03-23T04:57:06;8.70;99.90
27633;DHT22;15046;50.930;13.334;2024-03-23T04:59:32;8.70;99.90
27633;DHT22;15046;50.930;13.334;2024-03-23T05:01:59;8.60;99.90
27633;DHT22;15046;50.930;13.334;2024-03-23T05:04:25;8.50;99.90
27633;DHT22;15046;50.930;13.334;2024-03-23T05:06:51;8.50;99.90
27633;DHT22;15046;50.930;13.334;2024-03-23T05:09:16;8.40;99.90
27633;DHT22;15046;50.930;13.334;2024-03-23T05:11:42;8.30;99.90
27633;DHT22;15046;50.930;13.334;2024-03-23T05:14:08;8.30;99.90
27633;DHT22;15046;50.930;13.334;2024-03-23T05:16:34;8.30;99.90
27633;DHT22;15046;50.930;13.334;2024-03-23T05:18:59;8.30;99.90
27633;DHT22;15046;50.930;13.334;2024-03-23T05:21:26;8.40;99.90
27633;DHT22;15046;50.930;13.334;2024-03-23T05:23:53;8.40;99.90
27633;DHT22;15046;50.930;13.334;2024-03-23T05:26:19;8.50;99.90
27633;DHT22;15046;50.930;13.334;2024-03-23T05:28:45;8.50;99.90
27633;DHT22;15046;50.930;13.334;2024-03-23T05:31:11;8.60;99.90
27633;DHT22;15046;50.930;13.334;2024-03-23T05:33:36;8.60;99.90
27633;DHT22;15046;50.930;13.334;2024-03-23T05:36:05;8.60;99.90
27633;DHT22;15046;50.930;13.334;2024-03-23T05:38:31;8.70;99.90
27633;DHT22;15046;50.930;13.334;2024-03-23T05:40:58;8.70;99.90
27633;DHT22;15046;50.930;13.334;2024-03-23T05:43:24;8.70;99.90
27633;DHT22;15046;50.930;13.334;2024-03-23T05:48:19;8.70;99.90
27633;DHT22;15046;50.930;13.334;2024-03-23T05:50:45;8.70;99.90
27633;DHT22;15046;50.930;13.334;2024-03-23T05:53:11;8.70;99.90
27633;DHT22;15046;50.930;13.334;2024-03-23T05:55:38;8.60;99.90
27633;DHT22;15046;50.930;13.334;2024-03-23T05:58:04;8.60;99.90
27633;DHT22;15046;50.930;13.334;2024-03-23T06:00:30;8.60;99.90
27633;DHT22;15046;50.930;13.334;2024-03-23T06:02:56;8.50;99.90
27633;DHT22;15046;50.930;13.334;2024-03-23T06:05:21;8.50;99.90
27633;DHT22;15046;50.930;13.334;2024-03-23T06:07:47;8.40;99.90
27633;DHT22;15046;50.930;13.334;2024-03-23T06:10:13;8.20;99.90
27633;DHT22;15046;50.930;13.334;2024-03-23T06:12:38;8.10;99.90
27633;DHT22;15046;50.930;13.334;2024-03-23T06:15:05;8.10;99.90
27633;DHT22;15046;50.930;13.334;2024-03-23T06:17:30;8.00;99.90
27633;DHT22;15046;50.930;13.334;2024-03-23T06:19:56;8.00;99.90
27633;DHT22;15046;50.930;13.334;2024-03-23T06:22:22;8.00;99.90
27633;DHT22;15046;50.930;13.334;2024-03-23T06:24:48;7.90;99.90
27633;DHT22;15046;50.930;13.334;2024-03-23T06:27:14;7.90;99.90
27633;DHT22;15046;50.930;13.334;2024-03-23T06:29:39;7.90;99.90
27633;DHT22;15046;50.930;13.334;2024-03-23T06:32:05;7.80;99.90
27633;DHT22;15046;50.930;13.334;2024-03-23T06:34:31;7.90;99.90
27633;DHT22;15046;50.930;13.334;2024-03-23T06:36:56;7.90;99.90
27633;DHT22;15046;50.930;13.334;2024-03-23T06:39:22;7.90;99.90
27633;DHT22;15046;50.930;13.334;2024-03-23T06:41:54;7.90;99.90
27633;DHT22;15046;50.930;13.334;2024-03-23T06:44:20;8.00;99.90
27633;DHT22;15046;50.930;13.334;2024-03-23T06:46:46;8.00;99.90
27633;DHT22;15046;50.930;13.334;2024-03-23T06:49:14;8.00;99.90
27633;DHT22;15046;50.930;13.334;2024-03-23T06:51:40;8.00;99.90
27633;DHT22;15046;50.930;13.334;2024-03-23T06:54:06;8.00;99.90
27633;DHT22;15046;50.930;13.334;2024-03-23T06:56:32;8.10;99.90
27633;DHT22;15046;50.930;13.334;2024-03-23T06:58:58;8.10;99.90
27633;DHT22;15046;50.930;13.334;2024-03-23T07:01:24;8.10;99.90
27633;DHT22;15046;50.930;13.334;2024-03-23T07:03:50;8.10;99.90
27633;DHT22;15046;50.930;13.334;2024-03-23T07:06:16;8.20;99.90
27633;DHT22;15046;50.930;13.334;2024-03-23T07:08:41;8.20;99.90
27633;DHT22;15046;50.930;13.334;2024-03-23T07:11:07;8.30;99.90
27633;DHT22;15046;50.930;13.334;2024-03-23T07:13:33;8.40;99.90
27633;DHT22;15046;50.930;13.334;2024-03-23T07:15:59;8.40;99.90
27633;DHT22;15046;50.930;13.334;2024-03-23T07:18:25;8.40;99.90
27633;DHT22;15046;50.930;13.334;2024-03-23T07:20:55;8.50;99.90
27633;DHT22;15046;50.930;13.334;2024-03-23T07:23:25;8.50;99.90
27633;DHT22;15046;50.930;13.334;2024-03-23T07:26:04;8.60;99.90
27633;DHT22;15046;50.930;13.334;2024-03-23T07:28:30;8.70;99.90
27633;DHT22;15046;50.930;13.334;2024-03-23T07:31:07;8.70;99.90
27633;DHT22;15046;50.930;13.334;2024-03-23T07:33:47;8.80;99.90
27633;DHT22;15046;50.930;13.334;2024-03-23T07:36:13;8.90;99.90
27633;DHT22;15046;50.930;13.334;2024-03-23T07:38:43;8.90;99.90
27633;DHT22;15046;50.930;13.334;2024-03-23T07:41:11;9.00;99.90
27633;DHT22;15046;50.930;13.334;2024-03-23T07:43:38;9.10;99.90
27633;DHT22;15046;50.930;13.334;2024-03-23T07:46:04;9.20;99.90
27633;DHT22;15046;50.930;13.334;2024-03-23T07:48:31;9.30;99.90
27633;DHT22;15046;50.930;13.334;2024-03-23T07:51:03;9.30;99.90
27633;DHT22;15046;50.930;13.334;2024-03-23T07:53:33;9.30;99.90
27633;DHT22;15046;50.930;13.334;2024-03-23T07:56:07;9.40;99.90
27633;DHT22;15046;50.930;13.334;2024-03-23T07:58:34;9.40;99.90
27633;DHT22;15046;50.930;13.334;2024-03-23T08:01:16;9.40;99.90
27633;DHT22;15046;50.930;13.334;2024-03-23T08:03:45;9.40;99.90
27633;DHT22;15046;50.930;13.334;2024-03-23T08:06:18;9.50;99.90
27633;DHT22;15046;50.930;13.334;2024-03-23T08:08:46;9.50;99.90
27633;DHT22;15046;50.930;13.334;2024-03-23T08:11:12;9.70;99.90
27633;DHT22;15046;50.930;13.334;2024-03-23T08:13:42;9.80;99.90
27633;DHT22;15046;50.930;13.334;2024-03-23T08:16:08;10.00;99.90
27633;DHT22;15046;50.930;13.334;2024-03-23T08:18:37;10.00;99.90
27633;DHT22;15046;50.930;13.334;2024-03-23T08:21:04;10.00;99.90
27633;DHT22;15046;50.930;13.334;2024-03-23T08:23:33;10.00;99.90
27633;DHT22;15046;50.930;13.334;2024-03-23T08:26:00;10.10;99.90
27633;DHT22;15046;50.930;13.334;2024-03-23T08:28:26;10.30;99.90
27633;DHT22;15046;50.930;13.334;2024-03-23T08:30:53;10.50;99.90
27633;DHT22;15046;50.930;13.334;2024-03-23T08:33:19;10.50;99.90
27633;DHT22;15046;50.930;13.334;2024-03-23T08:36:05;10.60;99.90
27633;DHT22;15046;50.930;13.334;2024-03-23T08:38:32;10.70;99.90
27633;DHT22;15046;50.930;13.334;2024-03-23T08:40:59;10.70;99.90
27633;DHT22;15046;50.930;13.334;2024-03-23T08:43:25;10.80;99.90
27633;DHT22;15046;50.930;13.334;2024-03-23T08:45:52;10.90;99.90
27633;DHT22;15046;50.930;13.334;2024-03-23T08:48:19;10.90;99.90
27633;DHT22;15046;50.930;13.334;2024-03-23T08:50:46;11.10;99.90
27633;DHT22;15046;50.930;13.334;2024-03-23T08:53:12;11.10;99.90
27633;DHT22;15046;50.930;13.334;2024-03-23T08:55:38;11.10;99.90
27633;DHT22;15046;50.930;13.334;2024-03-23T08:58:04;11.10;99.90
27633;DHT22;15046;50.930;13.334;2024-03-23T09:00:30;11.10;99.90
27633;DHT22;15046;50.930;13.334;2024-03-23T09:02:55;11.10;99.90
27633;DHT22;15046;50.930;13.334;2024-03-23T09:05:22;11.00;99.90
27633;DHT22;15046;50.930;13.334;2024-03-23T09:07:49;10.90;99.90
27633;DHT22;15046;50.930;13.334;2024-03-23T09:10:15;10.80;99.90
27633;DHT22;15046;50.930;13.334;2024-03-23T09:12:41;10.70;99.90
27633;DHT22;15046;50.930;13.334;2024-03-23T09:15:07;10.50;99.90
27633;DHT22;15046;50.930;13.334;2024-03-23T09:17:32;10.30;99.90
27633;DHT22;15046;50.930;13.334;2024-03-23T09:19:58;10.20;99.90
27633;DHT22;15046;50.930;13.334;2024-03-23T09:22:24;10.10;99.90
27633;DHT22;15046;50.930;13.334;2024-03-23T09:24:49;9.90;99.90
27633;DHT22;15046;50.930;13.334;2024-03-23T09:27:15;9.70;99.90
27633;DHT22;15046;50.930;13.334;2024-03-23T09:29:41;9.40;99.90
27633;DHT22;15046;50.930;13.334;2024-03-23T09:32:06;9.20;99.90
27633;DHT22;15046;50.930;13.334;2024-03-23T09:34:33;9.00;99.90
27633;DHT22;15046;50.930;13.334;2024-03-23T09:36:59;8.90;99.90
27633;DHT22;15046;50.930;13.334;2024-03-23T09:39:25;8.70;99.90
27633;DHT22;15046;50.930;13.334;2024-03-23T09:41:50;8.50;99.90
27633;DHT22;15046;50.930;13.334;2024-03-23T09:44:21;8.20;99.90
27633;DHT22;15046;50.930;13.334;2024-03-23T09:46:48;7.90;99.90
27633;DHT22;15046;50.930;13.334;2024-03-23T09:49:13;7.80;99.90
27633;DHT22;15046;50.930;13.334;2024-03-23T09:51:39;7.70;99.90
27633;DHT22;15046;50.930;13.334;2024-03-23T09:54:05;7.60;99.90
27633;DHT22;15046;50.930;13.334;2024-03-23T09:56:30;7.40;99.90
27633;DHT22;15046;50.930;13.334;2024-03-23T09:59:03;7.20;99.90
27633;DHT22;15046;50.930;13.334;2024-03-23T10:01:31;7.00;99.90
27633;DHT22;15046;50.930;13.334;2024-03-23T10:03:57;6.70;99.90
27633;DHT22;15046;50.930;13.334;2024-03-23T10:06:23;6.50;99.90
27633;DHT22;15046;50.930;13.334;2024-03-23T10:08:52;6.30;99.90
27633;DHT22;15046;50.930;13.334;2024-03-23T10:11:19;6.20;99.90
27633;DHT22;15046;50.930;13.334;2024-03-23T10:13:48;6.10;99.90
27633;DHT22;15046;50.930;13.334;2024-03-23T10:16:23;5.90;99.90
27633;DHT22;15046;50.930;13.334;2024-03-23T10:18:49;5.90;99.90
27633;DHT22;15046;50.930;13.334;2024-03-23T10:21:16;5.70;99.90
27633;DHT22;15046;50.930;13.334;2024-03-23T10:23:43;5.70;99.90
27633;DHT22;15046;50.930;13.334;2024-03-23T10:26:23;5.60;99.90
27633;DHT22;15046;50.930;13.334;2024-03-23T10:28:57;5.60;99.90
27633;DHT22;15046;50.930;13.334;2024-03-23T10:31:26;5.60;99.90
27633;DHT22;15046;50.930;13.334;2024-03-23T10:33:52;5.50;99.90
27633;DHT22;15046;50.930;13.334;2024-03-23T10:36:20;5.40;99.90
27633;DHT22;15046;50.930;13.334;2024-03-23T10:38:46;5.50;99.90
27633;DHT22;15046;50.930;13.334;2024-03-23T10:41:13;5.50;99.90
27633;DHT22;15046;50.930;13.334;2024-03-23T10:43:39;5.50;99.90
27633;DHT22;15046;50.930;13.334;2024-03-23T10:46:05;5.50;99.90
27633;DHT22;15046;50.930;13.334;2024-03-23T10:48:32;5.30;99.90
27633;DHT22;15046;50.930;13.334;2024-03-23T10:50:58;5.20;99.90
27633;DHT22;15046;50.930;13.334;2024-03-23T10:53:28;5.10;99.90
27633;DHT22;15046;50.930;13.334;2024-03-23T10:55:55;5.10;99.90
27633;DHT22;15046;50.930;13.334;2024-03-23T10:58:28;5.20;99.90
27633;DHT22;15046;50.930;13.334;2024-03-23T11:00:55;5.20;99.90
27633;DHT22;15046;50.930;13.334;2024-03-23T11:03:37;5.30;99.90
27633;DHT22;15046;50.930;13.334;2024-03-23T11:06:04;5.20;99.90
27633;DHT22;15046;50.930;13.334;2024-03-23T11:08:40;5.10;99.90
27633;DHT22;15046;50.930;13.334;2024-03-23T11:11:17;5.10;99.90
27633;DHT22;15046;50.930;13.334;2024-03-23T11:13:44;5.10;99.90
27633;DHT22;15046;50.930;13.334;2024-03-23T11:16:29;5.10;99.90
27633;DHT22;15046;50.930;13.334;2024-03-23T11:22:02;5.30;99.90
27633;DHT22;15046;50.930;13.334;2024-03-23T11:24:27;5.40;99.90
27633;DHT22;15046;50.930;13.334;2024-03-23T11:26:53;5.40;99.90
27633;DHT22;15046;50.930;13.334;2024-03-23T11:29:19;5.40;99.90
27633;DHT22;15046;50.930;13.334;2024-03-23T11:31:53;5.40;99.90
27633;DHT22;15046;50.930;13.334;2024-03-23T11:34:20;5.30;99.90
27633;DHT22;15046;50.930;13.334;2024-03-23T11:36:46;5.20;99.90
27633;DHT22;15046;50.930;13.334;2024-03-23T11:39:17;5.10;99.90
27633;DHT22;15046;50.930;13.334;2024-03-23T11:41:55;5.10;99.90
27633;DHT22;15046;50.930;13.334;2024-03-23T11:44:25;5.00;99.90
27633;DHT22;15046;50.930;13.334;2024-03-23T11:46:51;5.00;99.90
27633;DHT22;15046;50.930;13.334;2024-03-23T11:49:24;5.00;99.90
27633;DHT22;15046;50.930;13.334;2024-03-23T11:51:51;5.00;99.90
27633;DHT22;15046;50.930;13.334;2024-03-23T11:54:23;4.90;99.90
27633;DHT22;15046;50.930;13.334;2024-03-23T11:56:56;5.00;99.90
27633;DHT22;15046;50.930;13.334;2024-03-23T11:59:41;5.00;99.90
27633;DHT22;15046;50.930;13.334;2024-03-23T12:02:08;5.00;99.90
27633;DHT22;15046;50.930;13.334;2024-03-23T12:04:35;5.00;99.90
27633;DHT22;15046;50.930;13.334;2024-03-23T12:07:25;4.90;99.90
27633;DHT22;15046;50.930;13.334;2024-03-23T12:10:09;5.00;99.90
27633;DHT22;15046;50.930;13.334;2024-03-23T12:12:34;5.00;99.90
27633;DHT22;15046;50.930;13.334;2024-03-23T12:15:08;5.10;99.90
27633;DHT22;15046;50.930;13.334;2024-03-23T12:17:34;5.20;99.90
27633;DHT22;15046;50.930;13.334;2024-03-23T12:20:01;5.10;99.90
27633;DHT22;15046;50.930;13.334;2024-03-23T12:22:27;5.20;99.90
27633;DHT22;15046;50.930;13.334;2024-03-23T12:24:54;5.20;99.90
27633;DHT22;15046;50.930;13.334;2024-03-23T12:27:20;5.20;99.90
27633;DHT22;15046;50.930;13.334;2024-03-23T12:29:46;5.20;99.90
27633;DHT22;15046;50.930;13.334;2024-03-23T12:32:13;5.30;99.90
27633;DHT22;15046;50.930;13.334;2024-03-23T12:34:39;5.20;99.90
27633;DHT22;15046;50.930;13.334;2024-03-23T12:37:05;5.20;99.90
27633;DHT22;15046;50.930;13.334;2024-03-23T12:39:34;5.10;99.90
27633;DHT22;15046;50.930;13.334;2024-03-23T12:42:01;5.20;99.90
27633;DHT22;15046;50.930;13.334;2024-03-23T12:44:28;5.30;99.90
27633;DHT22;15046;50.930;13.334;2024-03-23T12:46:54;5.30;99.90
27633;DHT22;15046;50.930;13.334;2024-03-23T12:49:20;5.50;99.90
27633;DHT22;15046;50.930;13.334;2024-03-23T12:52:04;5.60;99.90
27633;DHT22;15046;50.930;13.334;2024-03-23T12:54:33;5.50;99.90
27633;DHT22;15046;50.930;13.334;2024-03-23T12:56:58;5.50;99.90
27633;DHT22;15046;50.930;13.334;2024-03-23T12:59:24;5.40;99.90
27633;DHT22;15046;50.930;13.334;2024-03-23T13:01:50;5.40;99.90
27633;DHT22;15046;50.930;13.334;2024-03-23T13:04:15;5.30;99.90
27633;DHT22;15046;50.930;13.334;2024-03-23T13:06:41;5.30;99.90
27633;DHT22;15046;50.930;13.334;2024-03-23T13:09:07;5.30;99.90
27633;DHT22;15046;50.930;13.334;2024-03-23T13:11:33;5.30;99.90
27633;DHT22;15046;50.930;13.334;2024-03-23T13:13:58;5.30;99.90
27633;DHT22;15046;50.930;13.334;2024-03-23T13:16:24;5.40;99.90
27633;DHT22;15046;50.930;13.334;2024-03-23T13:18:50;5.70;99.90
27633;DHT22;15046;50.930;13.334;2024-03-23T13:21:16;6.20;99.90
27633;DHT22;15046;50.930;13.334;2024-03-23T13:23:42;6.30;99.90
27633;DHT22;15046;50.930;13.334;2024-03-23T13:26:13;6.60;99.90
27633;DHT22;15046;50.930;13.334;2024-03-23T13:28:39;7.40;99.90
27633;DHT22;15046;50.930;13.334;2024-03-23T13:31:05;8.30;99.90
27633;DHT22;15046;50.930;13.334;2024-03-23T13:33:31;8.60;99.90
27633;DHT22;15046;50.930;13.334;2024-03-23T13:36:00;10.10;99.90
27633;DHT22;15046;50.930;13.334;2024-03-23T13:38:26;10.70;99.90
27633;DHT22;15046;50.930;13.334;2024-03-23T13:40:56;10.50;99.90
27633;DHT22;15046;50.930;13.334;2024-03-23T13:43:23;10.10;99.90
27633;DHT22;15046;50.930;13.334;2024-03-23T13:45:52;10.00;99.90
27633;DHT22;15046;50.930;13.334;2024-03-23T13:48:20;9.60;99.90
27633;DHT22;15046;50.930;13.334;2024-03-23T13:50:46;10.20;99.90
27633;DHT22;15046;50.930;13.334;2024-03-23T13:53:14;11.50;99.90
27633;DHT22;15046;50.930;13.334;2024-03-23T13:55:46;13.00;99.90
27633;DHT22;15046;50.930;13.334;2024-03-23T13:58:14;14.00;99.90
27633;DHT22;15046;50.930;13.334;2024-03-23T14:00:41;14.40;99.90
27633;DHT22;15046;50.930;13.334;2024-03-23T14:03:10;13.90;99.90
27633;DHT22;15046;50.930;13.334;2024-03-23T14:05:37;12.90;99.90
27633;DHT22;15046;50.930;13.334;2024-03-23T14:08:06;12.70;99.90
27633;DHT22;15046;50.930;13.334;2024-03-23T14:10:33;13.60;99.90
27633;DHT22;15046;50.930;13.334;2024-03-23T14:12:59;14.20;99.90
27633;DHT22;15046;50.930;13.334;2024-03-23T14:15:27;14.00;99.90
27633;DHT22;15046;50.930;13.334;2024-03-23T14:17:53;13.80;99.90
27633;DHT22;15046;50.930;13.334;2024-03-23T14:20:20;13.10;99.90
27633;DHT22;15046;50.930;13.334;2024-03-23T14:22:47;13.00;99.90
27633;DHT22;15046;50.930;13.334;2024-03-23T14:25:13;13.50;99.90
27633;DHT22;15046;50.930;13.334;2024-03-23T14:27:39;14.10;99.90
27633;DHT22;15046;50.930;13.334;2024-03-23T14:30:06;14.80;99.90
27633;DHT22;15046;50.930;13.334;2024-03-23T14:32:32;15.10;99.90
27633;DHT22;15046;50.930;13.334;2024-03-23T14:35:03;14.60;99.90
27633;DHT22;15046;50.930;13.334;2024-03-23T14:37:29;13.30;99.90
27633;DHT22;15046;50.930;13.334;2024-03-23T14:39:58;12.30;99.90
27633;DHT22;15046;50.930;13.334;2024-03-23T14:42:24;11.40;99.90
27633;DHT22;15046;50.930;13.334;2024-03-23T14:44:51;10.70;99.90
27633;DHT22;15046;50.930;13.334;2024-03-23T14:47:18;10.30;99.90
27633;DHT22;15046;50.930;13.334;2024-03-23T14:49:44;10.00;99.90
27633;DHT22;15046;50.930;13.334;2024-03-23T14:52:19;10.00;99.90
27633;DHT22;15046;50.930;13.334;2024-03-23T14:54:45;10.00;99.90
27633;DHT22;15046;50.930;13.334;2024-03-23T14:57:12;10.20;99.90
27633;DHT22;15046;50.930;13.334;2024-03-23T14:59:38;10.30;99.90
27633;DHT22;15046;50.930;13.334;2024-03-23T15:02:05;10.10;99.90
27633;DHT22;15046;50.930;13.334;2024-03-23T15:04:31;9.90;99.90
27633;DHT22;15046;50.930;13.334;2024-03-23T15:06:57;9.60;99.90
27633;DHT22;15046;50.930;13.334;2024-03-23T15:09:23;9.40;99.90
27633;DHT22;15046;50.930;13.334;2024-03-23T15:11:48;9.30;99.90
27633;DHT22;15046;50.930;13.334;2024-03-23T15:14:14;9.20;99.90
27633;DHT22;15046;50.930;13.334;2024-03-23T15:16:40;9.20;99.90
27633;DHT22;15046;50.930;13.334;2024-03-23T15:19:08;9.20;99.90
27633;DHT22;15046;50.930;13.334;2024-03-23T15:21:34;9.10;99.90
27633;DHT22;15046;50.930;13.334;2024-03-23T15:24:01;9.10;99.90
27633;DHT22;15046;50.930;13.334;2024-03-23T15:26:26;9.10;99.90
27633;DHT22;15046;50.930;13.334;2024-03-23T15:28:52;9.10;99.90
27633;DHT22;15046;50.930;13.334;2024-03-23T15:31:24;9.00;99.90
27633;DHT22;15046;50.930;13.334;2024-03-23T15:33:50;8.90;99.90
27633;DHT22;15046;50.930;13.334;2024-03-23T15:36:16;8.70;99.90
27633;DHT22;15046;50.930;13.334;2024-03-23T15:38:43;8.70;99.90
27633;DHT22;15046;50.930;13.334;2024-03-23T15:41:09;8.80;99.90
27633;DHT22;15046;50.930;13.334;2024-03-23T15:43:35;8.80;99.90
27633;DHT22;15046;50.930;13.334;2024-03-23T15:46:03;8.90;99.90
27633;DHT22;15046;50.930;13.334;2024-03-23T15:48:30;8.80;99.90
27633;DHT22;15046;50.930;13.334;2024-03-23T15:50:58;8.60;99.90
27633;DHT22;15046;50.930;13.334;2024-03-23T15:53:25;8.50;99.90
27633;DHT22;15046;50.930;13.334;2024-03-23T15:56:01;8.30;99.80
27633;DHT22;15046;50.930;13.334;2024-03-23T15:58:27;8.30;99.80
27633;DHT22;15046;50.930;13.334;2024-03-23T16:00:58;8.40;99.90
27633;DHT22;15046;50.930;13.334;2024-03-23T16:03:24;8.50;99.60
27633;DHT22;15046;50.930;13.334;2024-03-23T16:05:51;8.60;99.40
27633;DHT22;15046;50.930;13.334;2024-03-23T16:08:17;8.50;99.10
27633;DHT22;15046;50.930;13.334;2024-03-23T16:10:43;8.40;98.90
27633;DHT22;15046;50.930;13.334;2024-03-23T16:13:08;8.30;99.00
27633;DHT22;15046;50.930;13.334;2024-03-23T16:15:34;8.10;98.80
27633;DHT22;15046;50.930;13.334;2024-03-23T16:18:00;7.80;99.00
27633;DHT22;15046;50.930;13.334;2024-03-23T16:20:26;7.60;99.40
27633;DHT22;15046;50.930;13.334;2024-03-23T16:22:51;7.30;99.80
27633;DHT22;15046;50.930;13.334;2024-03-23T16:25:17;7.20;99.90
27633;DHT22;15046;50.930;13.334;2024-03-23T16:27:43;7.10;99.90